Time;durP1;ratioP1;P1;durP2;ratioP2;P2;SDS_P1;SDS_P2;PMS_P1;PMS_P2;Temp;Humidity;BMP_temperature;BMP_pressure;BME280_temperature;BME280_humidity;BME280_pressure;Samples;Min_cycle;Max_cycle;Signal;HPM_P1;HPM_P2
2021/04/03 00:00:35;;;;;;;;;;;27.40;90.50;;;;;;5085490;28;19911;-42
2021/04/03 00:03:01;;;;;;;;;;;27.40;90.50;;;;;;5085847;28;19950;-44
2021/04/03 00:05:28;;;;;;;;;;;27.40;90.40;;;;;;5084929;28;19927;-42
2021/04/03 00:07:54;;;;;;;;;;;27.40;90.30;;;;;;5085755;28;19908;-42
2021/04/03 00:10:23;;;;;;;;;;;27.40;90.40;;;;;;5085307;28;19904;-44
2021/04/03 00:12:49;;;;;;;;;;;27.40;90.40;;;;;;5085477;28;19916;-42
2021/04/03 00:15:17;;;;;;;;;;;27.40;90.40;;;;;;5084541;28;19901;-43
2021/04/03 00:17:43;;;;;;;;;;;27.30;90.30;;;;;;5085422;28;19919;-44
2021/04/03 00:20:13;;;;;;;;;;;27.30;90.30;;;;;;5085214;28;19900;-43
2021/04/03 00:22:39;;;;;;;;;;;27.30;90.20;;;;;;5085176;28;19971;-48
2021/04/03 00:25:06;;;;;;;;;;;27.30;90.30;;;;;;5085358;28;19908;-47
2021/04/03 00:27:32;;;;;;;;;;;27.30;90.00;;;;;;5085287;28;19916;-43
2021/04/03 00:29:58;;;;;;;;;;;27.30;89.70;;;;;;5085016;28;20123;-41
2021/04/03 00:32:26;;;;;;;;;;;27.20;89.30;;;;;;5084934;28;20233;-43
2021/04/03 00:34:53;;;;;;;;;;;27.20;88.80;;;;;;5085221;28;20089;-52
2021/04/03 00:37:19;;;;;;;;;;;27.20;88.40;;;;;;5067079;28;19939;-42
2021/04/03 00:39:45;;;;;;;;;;;27.20;88.10;;;;;;5084791;28;19900;-40
2021/04/03 00:42:16;;;;;;;;;;;27.20;87.90;;;;;;5084406;28;19908;-45
2021/04/03 00:44:45;;;;;;;;;;;27.20;87.50;;;;;;5084455;28;20145;-47
2021/04/03 00:47:12;;;;;;;;;;;27.20;88.30;;;;;;5083469;28;20098;-40
2021/04/03 00:49:38;;;;;;;;;;;27.20;87.50;;;;;;5084502;28;19907;-47
2021/04/03 00:52:07;;;;;;;;;;;27.20;87.40;;;;;;5084585;28;19908;-48
2021/04/03 00:54:34;;;;;;;;;;;27.10;88.30;;;;;;5084494;28;20139;-44
2021/04/03 00:57:00;;;;;;;;;;;27.10;88.50;;;;;;5066256;28;20180;-43
2021/04/03 00:59:26;;;;;;;;;;;27.10;88.40;;;;;;5080202;28;19904;-40
2021/04/03 01:01:53;;;;;;;;;;;27.10;88.10;;;;;;5084024;28;20124;-40
2021/04/03 01:04:19;;;;;;;;;;;27.10;88.10;;;;;;5084630;28;19906;-41
2021/04/03 01:06:45;;;;;;;;;;;27.10;87.60;;;;;;5084551;28;20002;-42
2021/04/03 01:09:11;;;;;;;;;;;27.10;86.80;;;;;;5084410;28;19900;-43
2021/04/03 01:11:39;;;;;;;;;;;27.10;86.20;;;;;;5084378;28;19934;-40
2021/04/03 01:14:09;;;;;;;;;;;27.10;85.90;;;;;;5083974;28;19963;-43
2021/04/03 01:16:40;;;;;;;;;;;27.10;85.60;;;;;;5084100;28;19900;-40
2021/04/03 01:19:25;;;;;;;;;;;27.10;85.10;;;;;;5066741;28;19919;-43
2021/04/03 01:21:56;;;;;;;;;;;27.10;84.60;;;;;;5084406;28;20081;-45
2021/04/03 01:24:52;;;;;;;;;;;27.10;84.30;;;;;;5066533;28;20196;-50
2021/04/03 01:27:18;;;;;;;;;;;27.10;83.60;;;;;;5084394;28;19905;-44
2021/04/03 01:30:05;;;;;;;;;;;27.10;83.20;;;;;;5083880;28;19912;-45
2021/04/03 01:32:36;;;;;;;;;;;27.10;82.80;;;;;;5084174;28;19911;-43
2021/04/03 01:35:04;;;;;;;;;;;27.10;83.10;;;;;;5083983;28;19979;-40
2021/04/03 01:37:34;;;;;;;;;;;27.10;82.80;;;;;;5083992;28;19909;-44
2021/04/03 01:40:00;;;;;;;;;;;27.10;82.40;;;;;;5066156;28;19911;-40
2021/04/03 01:42:30;;;;;;;;;;;27.10;82.60;;;;;;5083801;28;19904;-47
2021/04/03 01:44:58;;;;;;;;;;;27.00;83.30;;;;;;5083703;28;20097;-49
2021/04/03 01:47:28;;;;;;;;;;;27.00;82.70;;;;;;5084199;28;19975;-41
2021/04/03 01:49:55;;;;;;;;;;;27.00;82.50;;;;;;5084015;28;19912;-41
2021/04/03 01:52:24;;;;;;;;;;;27.00;83.40;;;;;;5067824;28;19911;-40
2021/04/03 01:54:52;;;;;;;;;;;27.00;83.90;;;;;;5087836;28;19904;-47
2021/04/03 01:57:18;;;;;;;;;;;27.00;84.00;;;;;;5069956;28;19912;-47
2021/04/03 01:59:46;;;;;;;;;;;26.90;84.50;;;;;;5087527;28;20074;-43
2021/04/03 02:02:13;;;;;;;;;;;26.90;84.50;;;;;;5084316;28;19976;-41
2021/04/03 02:04:41;;;;;;;;;;;26.90;85.00;;;;;;5069626;28;19904;-44
2021/04/03 02:07:08;;;;;;;;;;;26.90;85.20;;;;;;5081360;28;20127;-41
2021/04/03 02:09:34;;;;;;;;;;;26.90;85.10;;;;;;5083587;28;19938;-47
2021/04/03 02:12:01;;;;;;;;;;;26.90;85.80;;;;;;5081788;28;20196;-44
2021/04/03 02:14:28;;;;;;;;;;;26.80;84.60;;;;;;5107123;28;19912;-42
2021/04/03 02:16:54;;;;;;;;;;;26.80;84.80;;;;;;5107639;28;20080;-42
2021/04/03 02:19:21;;;;;;;;;;;26.80;84.40;;;;;;5107451;28;20105;-42
2021/04/03 02:21:48;;;;;;;;;;;26.80;83.90;;;;;;5107328;28;19904;-42
2021/04/03 02:24:14;;;;;;;;;;;26.80;83.20;;;;;;5107363;28;19911;-45
2021/04/03 02:26:41;;;;;;;;;;;26.80;83.20;;;;;;5107190;28;19900;-45
2021/04/03 02:29:07;;;;;;;;;;;26.80;83.00;;;;;;5088415;28;19916;-42
2021/04/03 02:31:34;;;;;;;;;;;26.80;83.30;;;;;;5107144;28;19935;-40
2021/04/03 02:34:01;;;;;;;;;;;26.80;83.40;;;;;;5107225;28;20212;-39
2021/04/03 02:36:29;;;;;;;;;;;26.80;84.10;;;;;;5107098;28;20130;-42
2021/04/03 02:38:55;;;;;;;;;;;26.80;84.00;;;;;;5107305;28;19908;-39
2021/04/03 02:41:37;;;;;;;;;;;26.80;84.10;;;;;;5107288;28;20192;-41
2021/04/03 02:44:11;;;;;;;;;;;26.80;83.70;;;;;;5106752;28;19912;-42
2021/04/03 02:46:56;;;;;;;;;;;26.80;83.30;;;;;;5107235;28;19908;-42
2021/04/03 02:49:25;;;;;;;;;;;26.70;82.90;;;;;;5104597;28;19904;-41
2021/04/03 02:51:53;;;;;;;;;;;26.70;83.40;;;;;;5089023;28;19966;-48
2021/04/03 02:54:21;;;;;;;;;;;26.80;83.20;;;;;;5106463;28;19982;-44
2021/04/03 02:56:48;;;;;;;;;;;26.80;82.80;;;;;;5106781;28;19900;-38
2021/04/03 02:59:22;;;;;;;;;;;26.70;82.50;;;;;;5106846;28;19943;-46
2021/04/03 03:01:51;;;;;;;;;;;26.70;82.30;;;;;;5088831;28;19902;-46
2021/04/03 03:04:17;;;;;;;;;;;26.80;82.40;;;;;;5106188;28;19963;-40
2021/04/03 03:06:47;;;;;;;;;;;26.80;82.30;;;;;;5106945;28;19900;-44
2021/04/03 03:09:14;;;;;;;;;;;26.70;82.20;;;;;;5106806;28;19900;-41
2021/04/03 03:11:44;;;;;;;;;;;26.80;82.00;;;;;;5071751;28;19916;-44
2021/04/03 03:14:12;;;;;;;;;;;26.80;82.00;;;;;;5107058;28;19914;-45
2021/04/03 03:16:39;;;;;;;;;;;26.80;81.80;;;;;;5106307;28;19900;-42
2021/04/03 03:19:07;;;;;;;;;;;26.80;81.70;;;;;;5106865;28;19931;-43
2021/04/03 03:21:33;;;;;;;;;;;26.80;81.50;;;;;;5106668;28;19942;-40
2021/04/03 03:23:59;;;;;;;;;;;26.80;81.20;;;;;;5107036;28;19938;-41
2021/04/03 03:26:25;;;;;;;;;;;26.80;81.40;;;;;;5106496;28;19972;-41
2021/04/03 03:28:53;;;;;;;;;;;26.80;81.20;;;;;;5089154;28;19903;-40
2021/04/03 03:31:19;;;;;;;;;;;26.80;80.30;;;;;;5106644;28;19918;-42
2021/04/03 03:33:45;;;;;;;;;;;26.80;80.30;;;;;;5107102;28;20134;-45
2021/04/03 03:36:12;;;;;;;;;;;26.80;80.40;;;;;;5106695;28;19911;-43
2021/04/03 03:38:39;;;;;;;;;;;26.80;80.40;;;;;;5106835;28;19908;-43
2021/04/03 03:41:06;;;;;;;;;;;26.80;80.60;;;;;;5106489;28;19903;-45
2021/04/03 03:43:32;;;;;;;;;;;26.80;80.50;;;;;;5106760;28;19971;-46
2021/04/03 03:45:59;;;;;;;;;;;26.80;80.70;;;;;;5106369;28;19970;-44
2021/04/03 03:48:25;;;;;;;;;;;26.80;81.20;;;;;;5107006;28;19944;-43
2021/04/03 03:50:51;;;;;;;;;;;26.80;82.20;;;;;;5106367;28;19904;-40
2021/04/03 03:53:17;;;;;;;;;;;26.80;81.80;;;;;;5106456;28;20001;-40
2021/04/03 03:55:44;;;;;;;;;;;26.80;81.10;;;;;;5106275;28;19904;-43
2021/04/03 03:58:10;;;;;;;;;;;26.80;81.30;;;;;;5088099;28;20168;-41
2021/04/03 04:00:36;;;;;;;;;;;26.80;81.30;;;;;;5105948;28;19904;-49
2021/04/03 04:03:02;;;;;;;;;;;26.80;81.30;;;;;;5106133;28;19908;-45
2021/04/03 04:05:28;;;;;;;;;;;26.80;81.00;;;;;;5105799;28;20084;-43
2021/04/03 04:07:54;;;;;;;;;;;26.80;80.80;;;;;;5105996;28;19907;-44
2021/04/03 04:10:22;;;;;;;;;;;26.80;81.10;;;;;;5105766;28;19918;-45
2021/04/03 04:12:48;;;;;;;;;;;26.80;81.00;;;;;;5105544;28;19915;-39
2021/04/03 04:15:16;;;;;;;;;;;26.70;81.10;;;;;;5105097;28;19927;-49
2021/04/03 04:17:42;;;;;;;;;;;26.80;80.80;;;;;;5105437;28;20007;-42
2021/04/03 04:20:08;;;;;;;;;;;26.80;81.00;;;;;;5105690;28;19899;-45
2021/04/03 04:22:34;;;;;;;;;;;26.70;80.70;;;;;;5105784;28;19908;-39
2021/04/03 04:25:01;;;;;;;;;;;26.80;80.40;;;;;;5105303;28;19900;-43
2021/04/03 04:27:27;;;;;;;;;;;26.80;80.30;;;;;;5105241;28;19908;-44
2021/04/03 04:29:53;;;;;;;;;;;26.70;80.20;;;;;;5087306;28;19900;-43
2021/04/03 04:32:19;;;;;;;;;;;26.70;80.20;;;;;;5105310;28;20001;-41
2021/04/03 04:34:46;;;;;;;;;;;26.70;80.10;;;;;;5105362;28;19904;-47
2021/04/03 04:37:12;;;;;;;;;;;26.80;80.10;;;;;;5105045;28;19915;-46
2021/04/03 04:39:38;;;;;;;;;;;26.70;80.10;;;;;;5104909;28;19904;-44
2021/04/03 04:42:05;;;;;;;;;;;26.80;80.20;;;;;;5105136;28;19931;-40
2021/04/03 04:44:32;;;;;;;;;;;26.70;80.20;;;;;;5105032;28;19937;-40
2021/04/03 04:46:58;;;;;;;;;;;26.70;80.50;;;;;;5104932;28;19931;-43
2021/04/03 04:49:24;;;;;;;;;;;26.70;80.60;;;;;;5105141;28;19900;-49
2021/04/03 04:51:50;;;;;;;;;;;26.70;80.70;;;;;;5104944;28;19908;-43
2021/04/03 04:54:16;;;;;;;;;;;26.70;80.60;;;;;;5104896;28;19975;-46
2021/04/03 04:56:44;;;;;;;;;;;26.70;80.60;;;;;;5104775;28;19900;-40
2021/04/03 04:59:10;;;;;;;;;;;26.70;80.50;;;;;;5104910;28;20133;-40
2021/04/03 05:01:36;;;;;;;;;;;26.70;80.60;;;;;;5104595;28;20097;-40
2021/04/03 05:04:02;;;;;;;;;;;26.70;80.70;;;;;;5104775;28;19904;-41
2021/04/03 05:06:28;;;;;;;;;;;26.70;80.70;;;;;;5104862;28;19903;-43
2021/04/03 05:08:55;;;;;;;;;;;26.70;80.70;;;;;;5104747;28;19953;-41
2021/04/03 05:11:21;;;;;;;;;;;26.70;80.70;;;;;;5104186;28;20200;-42
2021/04/03 05:13:47;;;;;;;;;;;26.70;81.30;;;;;;5104042;28;20066;-43
2021/04/03 05:16:13;;;;;;;;;;;26.70;81.00;;;;;;5104694;28;20239;-43
2021/04/03 05:18:39;;;;;;;;;;;26.70;81.00;;;;;;5104847;28;20196;-43
2021/04/03 05:21:06;;;;;;;;;;;26.70;80.90;;;;;;5104473;28;19904;-43
2021/04/03 05:23:32;;;;;;;;;;;26.70;80.70;;;;;;5105005;28;19970;-45
2021/04/03 05:25:58;;;;;;;;;;;26.70;80.60;;;;;;5104423;28;19907;-47
2021/04/03 05:28:25;;;;;;;;;;;26.70;80.60;;;;;;5104305;28;19932;-46
2021/04/03 05:30:51;;;;;;;;;;;26.60;80.80;;;;;;5104398;28;19900;-44
2021/04/03 05:33:17;;;;;;;;;;;26.70;80.80;;;;;;5104645;28;19908;-41
2021/04/03 05:35:43;;;;;;;;;;;26.60;80.60;;;;;;5104383;28;19900;-43
2021/04/03 05:38:09;;;;;;;;;;;26.70;80.60;;;;;;5104568;28;20092;-45
2021/04/03 05:40:35;;;;;;;;;;;26.60;80.40;;;;;;5104146;28;19954;-46
2021/04/03 05:43:02;;;;;;;;;;;26.60;80.50;;;;;;5104355;28;19908;-41
2021/04/03 05:45:29;;;;;;;;;;;26.60;80.20;;;;;;5104388;28;19904;-41
2021/04/03 05:47:55;;;;;;;;;;;26.60;80.30;;;;;;5104569;28;19912;-45
2021/04/03 05:50:22;;;;;;;;;;;26.60;80.40;;;;;;5104442;28;19911;-39
2021/04/03 05:52:48;;;;;;;;;;;26.60;80.70;;;;;;5104528;28;19978;-40
2021/04/03 05:55:14;;;;;;;;;;;26.60;80.50;;;;;;5104222;28;19906;-42
2021/04/03 05:57:40;;;;;;;;;;;26.60;80.50;;;;;;5104017;28;19918;-41
2021/04/03 06:00:07;;;;;;;;;;;26.60;80.60;;;;;;5104389;28;19900;-41
2021/04/03 06:02:38;;;;;;;;;;;26.60;80.50;;;;;;5104469;28;19908;-41
2021/04/03 06:05:05;;;;;;;;;;;26.60;80.50;;;;;;5104170;28;20089;-46
2021/04/03 06:07:32;;;;;;;;;;;26.60;80.40;;;;;;5104417;28;20062;-52
2021/04/03 06:09:59;;;;;;;;;;;26.60;80.70;;;;;;5103984;28;19900;-46
2021/04/03 06:12:38;;;;;;;;;;;26.60;80.40;;;;;;5103757;28;19987;-41
2021/04/03 06:15:05;;;;;;;;;;;26.60;80.30;;;;;;5103953;28;19900;-40
2021/04/03 06:17:31;;;;;;;;;;;26.60;80.20;;;;;;5104183;28;19908;-45
2021/04/03 06:19:58;;;;;;;;;;;26.60;80.40;;;;;;5104037;28;20206;-43
2021/04/03 06:22:24;;;;;;;;;;;26.60;80.60;;;;;;5104112;28;19908;-42
2021/04/03 06:25:03;;;;;;;;;;;26.60;80.70;;;;;;5103841;28;20017;-40
2021/04/03 06:27:29;;;;;;;;;;;26.60;80.70;;;;;;5103892;28;20199;-38
2021/04/03 06:29:57;;;;;;;;;;;26.60;80.70;;;;;;5104013;28;20092;-41
2021/04/03 06:32:24;;;;;;;;;;;26.60;80.60;;;;;;5103898;28;19908;-43
2021/04/03 06:34:51;;;;;;;;;;;26.60;80.80;;;;;;5103810;28;19907;-43
2021/04/03 06:37:43;;;;;;;;;;;26.60;80.70;;;;;;5103924;28;20184;-43
2021/04/03 06:40:11;;;;;;;;;;;26.60;80.70;;;;;;5102567;28;19903;-44
2021/04/03 06:42:37;;;;;;;;;;;26.60;80.70;;;;;;5107484;28;19908;-42
2021/04/03 06:45:29;;;;;;;;;;;26.60;80.80;;;;;;5107410;28;19907;-41
2021/04/03 06:48:01;;;;;;;;;;;26.60;80.70;;;;;;5098324;28;19950;-40
2021/04/03 06:50:29;;;;;;;;;;;26.60;80.50;;;;;;5107279;28;19927;-39
2021/04/03 06:52:55;;;;;;;;;;;26.60;80.60;;;;;;5107497;28;19945;-39
2021/04/03 06:55:22;;;;;;;;;;;26.50;80.30;;;;;;5106854;28;19900;-39
2021/04/03 06:57:48;;;;;;;;;;;26.50;80.60;;;;;;5107404;28;19918;-40
2021/04/03 07:00:16;;;;;;;;;;;26.50;80.30;;;;;;5107419;28;19931;-46
2021/04/03 07:02:56;;;;;;;;;;;26.60;80.50;;;;;;5107220;28;19971;-43
2021/04/03 07:05:23;;;;;;;;;;;26.50;81.30;;;;;;5107303;28;19907;-39
2021/04/03 07:07:49;;;;;;;;;;;26.60;81.00;;;;;;5107342;28;20093;-43
2021/04/03 07:10:16;;;;;;;;;;;26.60;80.70;;;;;;5106420;28;19900;-46
2021/04/03 07:12:44;;;;;;;;;;;26.60;81.00;;;;;;5107042;28;19916;-43
2021/04/03 07:15:11;;;;;;;;;;;26.60;81.20;;;;;;5106815;28;20235;-45
2021/04/03 07:17:41;;;;;;;;;;;26.60;80.80;;;;;;5106858;28;19908;-40
2021/04/03 07:20:09;;;;;;;;;;;26.60;80.80;;;;;;5106683;28;19963;-42
2021/04/03 07:22:35;;;;;;;;;;;26.50;80.90;;;;;;5106892;28;19908;-43
2021/04/03 07:25:04;;;;;;;;;;;26.50;80.80;;;;;;5106344;28;19900;-41
2021/04/03 07:27:30;;;;;;;;;;;26.60;80.90;;;;;;5106776;28;19915;-40
2021/04/03 07:29:56;;;;;;;;;;;26.50;80.50;;;;;;5106605;28;19958;-45
2021/04/03 07:32:33;;;;;;;;;;;26.50;81.40;;;;;;5106854;28;19915;-48
2021/04/03 07:34:59;;;;;;;;;;;26.60;81.40;;;;;;5106533;28;19907;-48
2021/04/03 07:37:35;;;;;;;;;;;26.60;80.90;;;;;;5106222;28;19958;-41
2021/04/03 07:40:02;;;;;;;;;;;26.60;80.60;;;;;;5106033;28;19938;-46
2021/04/03 07:42:36;;;;;;;;;;;26.50;81.00;;;;;;5106636;28;19945;-49
2021/04/03 07:45:03;;;;;;;;;;;26.50;81.90;;;;;;5106282;28;19908;-46
2021/04/03 07:47:29;;;;;;;;;;;26.50;81.40;;;;;;5106450;28;19915;-39
2021/04/03 07:49:55;;;;;;;;;;;26.50;83.00;;;;;;5106001;28;19907;-40
2021/04/03 07:52:40;;;;;;;;;;;26.50;83.10;;;;;;5106122;28;19933;-45
2021/04/03 07:55:24;;;;;;;;;;;26.50;82.70;;;;;;5105631;28;19907;-42
2021/04/03 07:57:50;;;;;;;;;;;26.50;83.10;;;;;;5106280;28;20170;-43
2021/04/03 08:00:23;;;;;;;;;;;26.40;82.90;;;;;;5105943;28;19941;-45
2021/04/03 08:02:49;;;;;;;;;;;26.40;82.70;;;;;;5105923;28;19912;-44
2021/04/03 08:05:15;;;;;;;;;;;26.40;82.80;;;;;;5105935;28;19900;-47
2021/04/03 08:07:42;;;;;;;;;;;26.40;83.10;;;;;;5106110;28;19975;-47
2021/04/03 08:10:18;;;;;;;;;;;26.40;82.40;;;;;;5105397;28;19907;-46
2021/04/03 08:12:45;;;;;;;;;;;26.40;83.40;;;;;;5105821;28;19916;-42
2021/04/03 08:15:12;;;;;;;;;;;26.40;82.90;;;;;;5105942;28;19903;-42
2021/04/03 08:17:39;;;;;;;;;;;26.40;82.70;;;;;;5105717;28;19908;-48
2021/04/03 08:20:05;;;;;;;;;;;26.40;81.90;;;;;;5105572;28;19937;-42
2021/04/03 08:22:31;;;;;;;;;;;26.40;81.60;;;;;;5105850;28;19908;-44
2021/04/03 08:24:58;;;;;;;;;;;26.40;81.60;;;;;;5105124;28;19943;-41
2021/04/03 08:27:31;;;;;;;;;;;26.40;81.30;;;;;;5105767;28;20173;-43
2021/04/03 08:29:58;;;;;;;;;;;26.40;81.20;;;;;;5105412;28;19925;-41
2021/04/03 08:32:24;;;;;;;;;;;26.40;81.20;;;;;;5105478;28;19904;-45
2021/04/03 08:34:50;;;;;;;;;;;26.40;81.30;;;;;;5105365;28;19971;-47
2021/04/03 08:37:16;;;;;;;;;;;26.40;81.60;;;;;;5105427;28;19930;-42
2021/04/03 08:39:42;;;;;;;;;;;26.40;83.20;;;;;;5104792;28;19912;-40
2021/04/03 08:42:08;;;;;;;;;;;26.40;83.60;;;;;;5105310;28;19904;-41
2021/04/03 08:44:35;;;;;;;;;;;26.40;83.40;;;;;;5105157;28;20196;-41
2021/04/03 08:47:02;;;;;;;;;;;26.40;84.50;;;;;;5105087;28;19911;-41
2021/04/03 08:49:36;;;;;;;;;;;26.30;85.90;;;;;;5105122;28;19923;-42
2021/04/03 08:52:03;;;;;;;;;;;26.30;85.60;;;;;;5105032;28;19911;-44
2021/04/03 08:54:38;;;;;;;;;;;26.30;85.70;;;;;;5104591;28;20223;-40
2021/04/03 08:57:25;;;;;;;;;;;26.20;85.30;;;;;;5053173;28;20211;-40
2021/04/03 08:59:51;;;;;;;;;;;26.20;86.10;;;;;;5104566;28;20101;-46
2021/04/03 09:02:17;;;;;;;;;;;26.20;87.30;;;;;;5104430;28;19911;-43
2021/04/03 09:04:43;;;;;;;;;;;26.00;87.40;;;;;;5104829;28;19903;-51
2021/04/03 09:07:09;;;;;;;;;;;26.00;87.70;;;;;;5104860;28;19912;-45
2021/04/03 09:09:38;;;;;;;;;;;26.00;88.20;;;;;;5104465;28;19904;-39
2021/04/03 09:12:05;;;;;;;;;;;26.10;88.20;;;;;;5104678;28;19915;-46
2021/04/03 09:14:34;;;;;;;;;;;26.00;87.80;;;;;;5104194;28;19903;-42
2021/04/03 09:17:00;;;;;;;;;;;26.00;87.90;;;;;;5103467;28;20131;-45
2021/04/03 09:19:33;;;;;;;;;;;26.00;87.90;;;;;;5104523;28;19938;-40
2021/04/03 09:22:00;;;;;;;;;;;26.00;87.80;;;;;;5104566;28;19916;-43
2021/04/03 09:24:35;;;;;;;;;;;25.90;87.10;;;;;;5104873;28;20061;-40
2021/04/03 09:27:11;;;;;;;;;;;25.90;87.30;;;;;;5104585;28;20084;-40
2021/04/03 09:29:38;;;;;;;;;;;25.90;87.20;;;;;;5104417;28;19904;-47
2021/04/03 09:32:05;;;;;;;;;;;25.90;87.00;;;;;;5104164;28;19908;-47
2021/04/03 09:34:32;;;;;;;;;;;25.90;87.00;;;;;;5104503;28;19931;-53
2021/04/03 09:37:10;;;;;;;;;;;25.90;87.50;;;;;;5104343;28;19907;-47
2021/04/03 09:39:50;;;;;;;;;;;25.90;88.00;;;;;;5104282;28;20111;-51
2021/04/03 09:42:17;;;;;;;;;;;25.90;89.70;;;;;;5104428;28;19908;-47
2021/04/03 09:44:43;;;;;;;;;;;25.80;89.70;;;;;;5104270;28;20185;-54
2021/04/03 09:47:10;;;;;;;;;;;25.90;90.10;;;;;;5103957;28;20008;-48
2021/04/03 09:49:37;;;;;;;;;;;25.80;90.30;;;;;;5104362;28;19900;-41
2021/04/03 09:52:03;;;;;;;;;;;25.80;90.50;;;;;;5104479;28;19911;-48
2021/04/03 09:54:30;;;;;;;;;;;25.80;90.50;;;;;;5104564;28;19908;-43
2021/04/03 09:56:56;;;;;;;;;;;25.80;90.60;;;;;;5104297;28;19908;-42
2021/04/03 09:59:22;;;;;;;;;;;25.70;90.80;;;;;;5104072;28;19904;-42
2021/04/03 10:01:49;;;;;;;;;;;25.70;90.60;;;;;;5103599;28;19951;-48
2021/04/03 10:04:15;;;;;;;;;;;25.70;90.90;;;;;;5104038;28;19900;-42
2021/04/03 10:06:41;;;;;;;;;;;25.70;90.90;;;;;;5104140;28;19928;-48
2021/04/03 10:09:07;;;;;;;;;;;25.70;91.50;;;;;;5104022;28;20124;-41
2021/04/03 10:11:34;;;;;;;;;;;25.60;91.40;;;;;;5103888;28;20197;-45
2021/04/03 10:14:00;;;;;;;;;;;25.60;91.50;;;;;;5104937;28;20100;-48
2021/04/03 10:16:27;;;;;;;;;;;25.60;91.80;;;;;;5107773;28;19952;-47
2021/04/03 10:18:53;;;;;;;;;;;25.60;91.40;;;;;;5108350;28;19907;-45
2021/04/03 10:21:19;;;;;;;;;;;25.60;91.30;;;;;;5107888;28;19904;-45
2021/04/03 10:23:46;;;;;;;;;;;25.60;91.40;;;;;;5108125;28;19911;-41
2021/04/03 10:26:13;;;;;;;;;;;25.60;91.50;;;;;;5107876;28;20112;-52
2021/04/03 10:28:39;;;;;;;;;;;25.60;91.60;;;;;;5108176;28;20093;-47
2021/04/03 10:31:05;;;;;;;;;;;25.50;91.70;;;;;;5107175;28;20181;-41
2021/04/03 10:33:31;;;;;;;;;;;25.50;91.60;;;;;;5108012;28;19911;-41
2021/04/03 10:35:57;;;;;;;;;;;25.50;91.90;;;;;;5107562;28;20133;-38
2021/04/03 10:38:23;;;;;;;;;;;25.50;90.80;;;;;;5107690;28;19912;-41
2021/04/03 10:40:50;;;;;;;;;;;25.50;90.80;;;;;;5107583;28;19912;-43
2021/04/03 10:43:16;;;;;;;;;;;25.50;90.60;;;;;;5107955;28;19911;-39
2021/04/03 10:45:42;;;;;;;;;;;25.50;90.50;;;;;;5107100;28;19904;-45
2021/04/03 10:48:08;;;;;;;;;;;25.50;90.40;;;;;;5107629;28;19904;-41
2021/04/03 10:50:34;;;;;;;;;;;25.60;90.60;;;;;;5107408;28;19950;-46
2021/04/03 10:53:01;;;;;;;;;;;25.50;90.70;;;;;;5107561;28;19945;-41
2021/04/03 10:55:28;;;;;;;;;;;25.50;90.70;;;;;;5107094;28;19904;-43
2021/04/03 10:57:54;;;;;;;;;;;25.50;90.80;;;;;;5107394;28;19912;-47
2021/04/03 11:00:21;;;;;;;;;;;25.50;90.60;;;;;;5106840;28;19904;-41
2021/04/03 11:02:47;;;;;;;;;;;25.60;90.60;;;;;;5107277;28;19910;-42
2021/04/03 11:05:13;;;;;;;;;;;25.50;90.80;;;;;;5107216;28;19911;-48
2021/04/03 11:07:39;;;;;;;;;;;25.60;90.60;;;;;;5107237;28;20000;-39
2021/04/03 11:10:06;;;;;;;;;;;25.60;90.80;;;;;;5106851;28;19908;-42
2021/04/03 11:12:32;;;;;;;;;;;25.60;90.60;;;;;;5106945;28;19916;-44
2021/04/03 11:14:58;;;;;;;;;;;25.60;90.30;;;;;;5106569;28;19936;-44
2021/04/03 11:17:24;;;;;;;;;;;25.60;90.20;;;;;;5106976;28;20170;-44
2021/04/03 11:19:51;;;;;;;;;;;25.60;90.30;;;;;;5106663;28;19910;-46
2021/04/03 11:22:17;;;;;;;;;;;25.60;90.20;;;;;;5106808;28;19908;-44
2021/04/03 11:24:43;;;;;;;;;;;25.60;90.00;;;;;;5106086;28;19904;-43
2021/04/03 11:27:09;;;;;;;;;;;25.60;90.00;;;;;;5106890;28;19916;-41
2021/04/03 11:29:35;;;;;;;;;;;25.60;90.00;;;;;;5106362;28;19922;-45
2021/04/03 11:32:02;;;;;;;;;;;25.60;89.70;;;;;;5106674;28;19908;-49
2021/04/03 11:34:28;;;;;;;;;;;25.60;89.90;;;;;;5106746;28;19904;-42
2021/04/03 11:36:54;;;;;;;;;;;25.60;89.70;;;;;;5106534;28;19979;-43
2021/04/03 11:39:20;;;;;;;;;;;25.60;89.50;;;;;;5106421;28;20167;-41
2021/04/03 11:41:46;;;;;;;;;;;25.60;89.40;;;;;;5106236;28;19957;-40
2021/04/03 11:44:13;;;;;;;;;;;25.60;89.30;;;;;;5106090;28;19911;-41
2021/04/03 11:46:39;;;;;;;;;;;25.60;89.70;;;;;;5106391;28;19967;-41
2021/04/03 11:49:05;;;;;;;;;;;25.60;89.30;;;;;;5106114;28;19904;-41
2021/04/03 11:51:32;;;;;;;;;;;25.60;89.00;;;;;;5106069;28;19934;-41
2021/04/03 11:53:58;;;;;;;;;;;25.60;89.10;;;;;;5106102;28;19931;-46
2021/04/03 11:56:24;;;;;;;;;;;25.60;88.90;;;;;;5105926;28;19900;-44
2021/04/03 11:58:50;;;;;;;;;;;25.60;88.70;;;;;;5106282;28;19914;-41
2021/04/03 12:01:17;;;;;;;;;;;25.60;88.80;;;;;;5105954;28;19903;-43
2021/04/03 12:03:43;;;;;;;;;;;25.60;88.60;;;;;;5106302;28;19904;-44
2021/04/03 12:06:09;;;;;;;;;;;25.70;88.60;;;;;;5105896;28;19903;-44
2021/04/03 12:08:35;;;;;;;;;;;25.60;88.60;;;;;;5106340;28;19949;-46
2021/04/03 12:11:01;;;;;;;;;;;25.70;88.50;;;;;;5105436;28;20096;-50
2021/04/03 12:13:27;;;;;;;;;;;25.70;89.00;;;;;;5106181;28;19939;-42
2021/04/03 12:15:54;;;;;;;;;;;25.70;88.70;;;;;;5105352;28;19937;-42
2021/04/03 12:18:20;;;;;;;;;;;25.70;88.60;;;;;;5105846;28;19918;-40
2021/04/03 12:20:47;;;;;;;;;;;25.70;88.30;;;;;;5105467;28;19900;-46
2021/04/03 12:23:13;;;;;;;;;;;25.70;88.30;;;;;;5106016;28;19914;-43
2021/04/03 12:25:40;;;;;;;;;;;25.70;88.50;;;;;;5105356;28;19900;-46
2021/04/03 12:28:06;;;;;;;;;;;25.70;88.20;;;;;;5105617;28;20126;-42
2021/04/03 12:30:32;;;;;;;;;;;25.80;88.10;;;;;;5103668;28;19900;-41
2021/04/03 12:32:58;;;;;;;;;;;25.80;87.80;;;;;;5103904;28;19908;-44
2021/04/03 12:35:24;;;;;;;;;;;25.80;88.00;;;;;;5103841;28;19906;-42
2021/04/03 12:37:51;;;;;;;;;;;25.70;88.30;;;;;;5104271;28;19916;-43
2021/04/03 12:40:17;;;;;;;;;;;25.80;88.40;;;;;;5105470;28;20192;-47
2021/04/03 12:42:45;;;;;;;;;;;25.80;88.20;;;;;;5105303;28;20250;-40
2021/04/03 12:45:11;;;;;;;;;;;25.80;87.90;;;;;;5086881;28;20255;-42
2021/04/03 12:47:37;;;;;;;;;;;25.80;88.70;;;;;;5105316;28;20179;-42
2021/04/03 12:50:05;;;;;;;;;;;25.80;88.10;;;;;;5104949;28;19900;-42
2021/04/03 12:52:31;;;;;;;;;;;25.80;88.20;;;;;;5105245;28;19908;-48
2021/04/03 12:54:57;;;;;;;;;;;25.90;87.90;;;;;;5105018;28;19900;-46
2021/04/03 12:57:23;;;;;;;;;;;25.90;87.70;;;;;;5104993;28;19923;-45
2021/04/03 12:59:49;;;;;;;;;;;25.90;87.50;;;;;;5104372;28;19989;-43
2021/04/03 13:02:17;;;;;;;;;;;25.90;87.40;;;;;;5105190;28;19935;-46
2021/04/03 13:04:45;;;;;;;;;;;26.00;87.60;;;;;;5104611;28;19900;-38
2021/04/03 13:07:12;;;;;;;;;;;26.00;87.40;;;;;;5105093;28;19907;-40
2021/04/03 13:09:38;;;;;;;;;;;26.00;87.30;;;;;;5104742;28;19935;-41
2021/04/03 13:12:05;;;;;;;;;;;26.00;87.10;;;;;;5104613;28;19957;-50
2021/04/03 13:14:31;;;;;;;;;;;26.00;86.90;;;;;;5086374;28;19908;-47
2021/04/03 13:16:58;;;;;;;;;;;26.00;87.10;;;;;;5104488;28;20122;-47
2021/04/03 13:19:24;;;;;;;;;;;26.00;86.90;;;;;;5104522;28;19904;-45
2021/04/03 13:21:52;;;;;;;;;;;26.10;86.90;;;;;;5103381;28;20111;-41
2021/04/03 13:24:18;;;;;;;;;;;26.10;86.90;;;;;;5104644;28;19903;-42
2021/04/03 13:26:44;;;;;;;;;;;26.10;86.90;;;;;;5104546;28;19941;-42
2021/04/03 13:29:10;;;;;;;;;;;26.10;87.00;;;;;;5104182;28;19900;-48
2021/04/03 13:31:36;;;;;;;;;;;26.20;87.10;;;;;;5104411;28;19907;-48
2021/04/03 13:34:03;;;;;;;;;;;26.20;87.10;;;;;;5104388;28;19900;-43
2021/04/03 13:36:29;;;;;;;;;;;26.20;87.00;;;;;;5103543;28;19911;-40
2021/04/03 13:38:55;;;;;;;;;;;26.20;87.00;;;;;;5104049;28;19978;-42
2021/04/03 13:41:21;;;;;;;;;;;26.30;86.90;;;;;;5104335;28;19904;-44
2021/04/03 13:43:47;;;;;;;;;;;26.30;86.90;;;;;;5104287;28;19904;-43
2021/04/03 13:46:13;;;;;;;;;;;26.40;87.00;;;;;;5104280;28;19911;-41
2021/04/03 13:48:40;;;;;;;;;;;26.40;86.90;;;;;;5106747;28;19904;-43
2021/04/03 13:51:06;;;;;;;;;;;26.50;86.80;;;;;;5108296;28;19904;-49
2021/04/03 13:53:32;;;;;;;;;;;26.50;87.10;;;;;;5108595;28;19908;-47
2021/04/03 13:55:58;;;;;;;;;;;26.50;87.00;;;;;;5108342;28;19904;-44
2021/04/03 13:58:24;;;;;;;;;;;26.60;87.10;;;;;;5108254;28;19912;-41
2021/04/03 14:00:51;;;;;;;;;;;26.60;87.40;;;;;;5107967;28;19923;-42
2021/04/03 14:03:17;;;;;;;;;;;26.70;88.30;;;;;;5108330;28;20118;-48
2021/04/03 14:05:44;;;;;;;;;;;26.80;88.10;;;;;;5107792;28;19911;-53
2021/04/03 14:08:11;;;;;;;;;;;26.80;87.50;;;;;;5108071;28;19961;-41
2021/04/03 14:10:37;;;;;;;;;;;26.90;87.50;;;;;;5107438;28;19932;-41
2021/04/03 14:13:03;;;;;;;;;;;26.90;87.10;;;;;;5107618;28;20002;-41
2021/04/03 14:15:30;;;;;;;;;;;27.00;87.40;;;;;;5107467;28;19949;-45
2021/04/03 14:17:57;;;;;;;;;;;27.00;87.40;;;;;;5107654;28;19915;-44